sensor_id;sensor_type;location;lat;lon;timestamp;pressure;altitude;pressure_sealevel;temperature;humidity
61287;BME280;56412;53.148;8.204;2022-09-09T00:00:59;100788.63;;;18.73;63.10
61287;BME280;56412;53.148;8.204;2022-09-09T00:03:43;100789.91;;;18.69;63.24
61287;BME280;56412;53.148;8.204;2022-09-09T00:14:08;100785.50;;;18.59;62.92
61287;BME280;56412;53.148;8.204;2022-09-09T00:16:42;100771.53;;;18.59;63.13
61287;BME280;56412;53.148;8.204;2022-09-09T00:19:22;100776.91;;;18.57;63.03
61287;BME280;56412;53.148;8.204;2022-09-09T00:24:41;100779.00;;;18.54;62.88
61287;BME280;56412;53.148;8.204;2022-09-09T00:27:16;100781.63;;;18.54;63.00
61287;BME280;56412;53.148;8.204;2022-09-09T00:29:56;100785.19;;;18.53;63.05
61287;BME280;56412;53.148;8.204;2022-09-09T00:32:27;100783.53;;;18.52;63.13
61287;BME280;56412;53.148;8.204;2022-09-09T00:34:56;100791.28;;;18.53;63.12
61287;BME280;56412;53.148;8.204;2022-09-09T00:37:25;100792.13;;;18.54;63.05
61287;BME280;56412;53.148;8.204;2022-09-09T00:39:51;100786.88;;;18.54;63.02
61287;BME280;56412;53.148;8.204;2022-09-09T00:42:25;100791.13;;;18.55;63.46
61287;BME280;56412;53.148;8.204;2022-09-09T00:47:53;100782.03;;;18.69;63.39
61287;BME280;56412;53.148;8.204;2022-09-09T00:56:51;100781.19;;;18.68;63.09
61287;BME280;56412;53.148;8.204;2022-09-09T01:01:52;100772.09;;;18.63;63.33
61287;BME280;56412;53.148;8.204;2022-09-09T01:04:21;100779.97;;;18.63;62.99
61287;BME280;56412;53.148;8.204;2022-09-09T01:06:57;100777.19;;;18.64;63.12
61287;BME280;56412;53.148;8.204;2022-09-09T01:09:54;100774.41;;;18.56;63.53
61287;BME280;56412;53.148;8.204;2022-09-09T01:12:25;100786.03;;;18.63;63.39
61287;BME280;56412;53.148;8.204;2022-09-09T01:15:02;100777.22;;;18.74;63.25
61287;BME280;56412;53.148;8.204;2022-09-09T01:20:23;100779.84;;;18.74;63.17
61287;BME280;56412;53.148;8.204;2022-09-09T01:28:41;100773.75;;;18.64;62.78
61287;BME280;56412;53.148;8.204;2022-09-09T01:31:11;100767.13;;;18.59;62.82
61287;BME280;56412;53.148;8.204;2022-09-09T01:33:42;100767.41;;;18.56;63.10
61287;BME280;56412;53.148;8.204;2022-09-09T01:36:12;100768.34;;;18.55;62.92
61287;BME280;56412;53.148;8.204;2022-09-09T01:38:46;100761.59;;;18.53;62.79
61287;BME280;56412;53.148;8.204;2022-09-09T01:41:11;100763.38;;;18.52;63.01
61287;BME280;56412;53.148;8.204;2022-09-09T01:43:37;100758.13;;;18.52;62.92
61287;BME280;56412;53.148;8.204;2022-09-09T01:46:02;100757.31;;;18.52;62.93
61287;BME280;56412;53.148;8.204;2022-09-09T01:48:27;100765.19;;;18.52;62.80
61287;BME280;56412;53.148;8.204;2022-09-09T01:50:54;100757.31;;;18.52;62.89
61287;BME280;56412;53.148;8.204;2022-09-09T01:53:21;100753.59;;;18.54;62.72
61287;BME280;56412;53.148;8.204;2022-09-09T02:01:48;100740.72;;;18.61;62.93
61287;BME280;56412;53.148;8.204;2022-09-09T02:09:52;100753.03;;;18.60;62.93
61287;BME280;56412;53.148;8.204;2022-09-09T02:12:25;100739.22;;;18.58;62.66
61287;BME280;56412;53.148;8.204;2022-09-09T02:14:56;100747.25;;;18.57;62.90
61287;BME280;56412;53.148;8.204;2022-09-09T02:17:29;100746.13;;;18.50;63.04
61287;BME280;56412;53.148;8.204;2022-09-09T02:20:02;100745.19;;;18.51;62.78
61287;BME280;56412;53.148;8.204;2022-09-09T02:22:33;100743.78;;;18.47;62.72
61287;BME280;56412;53.148;8.204;2022-09-09T02:25:04;100747.25;;;18.47;62.68
61287;BME280;56412;53.148;8.204;2022-09-09T02:27:33;100742.25;;;18.44;62.59
61287;BME280;56412;53.148;8.204;2022-09-09T02:29:59;100745.16;;;18.41;62.82
61287;BME280;56412;53.148;8.204;2022-09-09T02:32:27;100749.75;;;18.39;62.57
61287;BME280;56412;53.148;8.204;2022-09-09T02:35:02;100752.50;;;18.37;62.77
61287;BME280;56412;53.148;8.204;2022-09-09T02:37:35;100742.28;;;18.34;62.69
61287;BME280;56412;53.148;8.204;2022-09-09T02:40:06;100746.56;;;18.35;62.80
61287;BME280;56412;53.148;8.204;2022-09-09T02:42:41;100742.28;;;18.34;62.69
61287;BME280;56412;53.148;8.204;2022-09-09T02:45:08;100750.84;;;18.36;62.84
61287;BME280;56412;53.148;8.204;2022-09-09T02:47:37;100745.31;;;18.39;62.69
61287;BME280;56412;53.148;8.204;2022-09-09T02:50:12;100744.88;;;18.44;62.53
61287;BME280;56412;53.148;8.204;2022-09-09T02:55:45;100745.59;;;18.46;62.58
61287;BME280;56412;53.148;8.204;2022-09-09T02:58:14;100746.41;;;18.47;62.72
61287;BME280;56412;53.148;8.204;2022-09-09T03:00:42;100749.19;;;18.45;62.71
61287;BME280;56412;53.148;8.204;2022-09-09T03:03:09;100738.69;;;18.45;62.60
61287;BME280;56412;53.148;8.204;2022-09-09T03:05:34;100752.22;;;18.41;63.03
61287;BME280;56412;53.148;8.204;2022-09-09T03:08:00;100748.38;;;18.45;62.93
61287;BME280;56412;53.148;8.204;2022-09-09T03:10:27;100748.63;;;18.51;63.01
61287;BME280;56412;53.148;8.204;2022-09-09T03:12:52;100742.53;;;18.41;63.05
61287;BME280;56412;53.148;8.204;2022-09-09T03:15:17;100753.03;;;18.51;63.15
61287;BME280;56412;53.148;8.204;2022-09-09T03:17:43;100747.25;;;18.57;62.70
61287;BME280;56412;53.148;8.204;2022-09-09T03:20:08;100751.22;;;18.61;62.86
61287;BME280;56412;53.148;8.204;2022-09-09T03:22:34;100750.00;;;18.55;62.82
61287;BME280;56412;53.148;8.204;2022-09-09T03:25:00;100754.94;;;18.58;62.79
61287;BME280;56412;53.148;8.204;2022-09-09T03:27:26;100761.72;;;18.61;62.65
61287;BME280;56412;53.148;8.204;2022-09-09T03:29:52;100756.47;;;18.61;62.72
61287;BME280;56412;53.148;8.204;2022-09-09T03:32:17;100757.44;;;18.60;62.55
61287;BME280;56412;53.148;8.204;2022-09-09T03:34:43;100762.69;;;18.60;62.63
61287;BME280;56412;53.148;8.204;2022-09-09T03:37:09;100751.09;;;18.53;62.13
61287;BME280;56412;53.148;8.204;2022-09-09T03:39:34;100754.84;;;18.50;62.48
61287;BME280;56412;53.148;8.204;2022-09-09T03:42:00;100761.03;;;18.49;62.60
61287;BME280;56412;53.148;8.204;2022-09-09T03:44:28;100754.81;;;18.41;62.64
61287;BME280;56412;53.148;8.204;2022-09-09T03:46:54;100757.44;;;18.41;62.56
61287;BME280;56412;53.148;8.204;2022-09-09T03:49:19;100752.78;;;18.15;63.29
61287;BME280;56412;53.148;8.204;2022-09-09T03:51:45;100764.22;;;18.33;62.76
61287;BME280;56412;53.148;8.204;2022-09-09T03:54:10;100768.50;;;18.34;62.46
61287;BME280;56412;53.148;8.204;2022-09-09T03:56:35;100768.66;;;18.33;62.36
61287;BME280;56412;53.148;8.204;2022-09-09T03:59:01;100772.22;;;18.32;62.39
61287;BME280;56412;53.148;8.204;2022-09-09T04:01:27;100776.78;;;18.30;62.58
61287;BME280;56412;53.148;8.204;2022-09-09T04:03:53;100773.19;;;18.31;62.63
61287;BME280;56412;53.148;8.204;2022-09-09T04:06:19;100777.63;;;18.30;62.62
61287;BME280;56412;53.148;8.204;2022-09-09T04:08:46;100778.84;;;18.26;62.69
61287;BME280;56412;53.148;8.204;2022-09-09T04:11:13;100773.31;;;18.29;62.63
61287;BME280;56412;53.148;8.204;2022-09-09T04:13:40;100777.19;;;18.25;62.55
61287;BME280;56412;53.148;8.204;2022-09-09T04:16:06;100776.38;;;18.25;62.59
61287;BME280;56412;53.148;8.204;2022-09-09T04:18:34;100767.81;;;18.23;62.28
61287;BME280;56412;53.148;8.204;2022-09-09T04:20:59;100776.66;;;18.12;62.98
61287;BME280;56412;53.148;8.204;2022-09-09T04:23:26;100779.94;;;18.04;62.87
61287;BME280;56412;53.148;8.204;2022-09-09T04:25:54;100774.81;;;18.03;62.66
61287;BME280;56412;53.148;8.204;2022-09-09T04:28:22;100791.94;;;18.07;62.67
61287;BME280;56412;53.148;8.204;2022-09-09T04:30:49;100782.00;;;18.01;62.85
61287;BME280;56412;53.148;8.204;2022-09-09T04:33:15;100778.13;;;18.05;62.54
61287;BME280;56412;53.148;8.204;2022-09-09T04:35:46;100781.56;;;18.05;62.43
61287;BME280;56412;53.148;8.204;2022-09-09T04:38:13;100787.78;;;18.04;62.34
61287;BME280;56412;53.148;8.204;2022-09-09T04:40:39;100779.66;;;17.98;62.36
61287;BME280;56412;53.148;8.204;2022-09-09T04:43:07;100784.47;;;17.92;62.51
61287;BME280;56412;53.148;8.204;2022-09-09T04:45:33;100781.44;;;17.97;62.46
61287;BME280;56412;53.148;8.204;2022-09-09T04:47:58;100793.16;;;17.93;62.54
61287;BME280;56412;53.148;8.204;2022-09-09T04:50:24;100796.19;;;17.88;62.98
61287;BME280;56412;53.148;8.204;2022-09-09T04:52:49;100792.03;;;17.96;62.53
61287;BME280;56412;53.148;8.204;2022-09-09T04:55:15;100791.72;;;17.79;63.00
61287;BME280;56412;53.148;8.204;2022-09-09T04:57:40;100793.84;;;17.85;62.97
61287;BME280;56412;53.148;8.204;2022-09-09T05:00:06;100794.13;;;17.92;62.67
61287;BME280;56412;53.148;8.204;2022-09-09T05:02:32;100798.25;;;17.95;62.39
61287;BME280;56412;53.148;8.204;2022-09-09T05:04:58;100794.25;;;17.90;62.43
61287;BME280;56412;53.148;8.204;2022-09-09T05:07:23;100804.00;;;17.79;63.04
61287;BME280;56412;53.148;8.204;2022-09-09T05:09:51;100799.06;;;17.85;62.79
61287;BME280;56412;53.148;8.204;2022-09-09T05:12:16;100808.47;;;17.98;62.62
61287;BME280;56412;53.148;8.204;2022-09-09T05:14:42;100810.81;;;18.01;62.41
61287;BME280;56412;53.148;8.204;2022-09-09T05:17:08;100813.84;;;18.06;62.52
61287;BME280;56412;53.148;8.204;2022-09-09T05:19:34;100810.13;;;17.99;62.88
61287;BME280;56412;53.148;8.204;2022-09-09T05:21:59;100815.53;;;18.07;62.47
61287;BME280;56412;53.148;8.204;2022-09-09T05:24:26;100815.97;;;18.12;62.72
61287;BME280;56412;53.148;8.204;2022-09-09T05:26:51;100817.44;;;18.05;62.72
61287;BME280;56412;53.148;8.204;2022-09-09T05:29:16;100816.94;;;18.21;62.63
61287;BME280;56412;53.148;8.204;2022-09-09T05:31:44;100819.28;;;18.33;62.81
61287;BME280;56412;53.148;8.204;2022-09-09T05:34:09;100820.66;;;18.37;62.43
61287;BME280;56412;53.148;8.204;2022-09-09T05:36:35;100823.28;;;18.37;62.83
61287;BME280;56412;53.148;8.204;2022-09-09T05:39:00;100817.78;;;18.41;62.77
61287;BME280;56412;53.148;8.204;2022-09-09T05:41:26;100808.53;;;18.56;62.74
61287;BME280;56412;53.148;8.204;2022-09-09T05:43:52;100823.59;;;18.64;62.69
61287;BME280;56412;53.148;8.204;2022-09-09T05:46:18;100825.53;;;18.81;62.37
61287;BME280;56412;53.148;8.204;2022-09-09T05:48:46;100823.03;;;18.70;61.99
61287;BME280;56412;53.148;8.204;2022-09-09T05:51:14;100822.09;;;18.80;62.97
61287;BME280;56412;53.148;8.204;2022-09-09T05:53:42;100830.06;;;19.08;63.18
61287;BME280;56412;53.148;8.204;2022-09-09T05:56:09;100829.63;;;19.22;62.09
61287;BME280;56412;53.148;8.204;2022-09-09T05:58:37;100829.00;;;19.38;62.86
61287;BME280;56412;53.148;8.204;2022-09-09T06:01:11;100832.16;;;19.51;62.11
61287;BME280;56412;53.148;8.204;2022-09-09T06:03:39;100830.75;;;19.57;61.92
61287;BME280;56412;53.148;8.204;2022-09-09T06:06:09;100830.19;;;19.16;62.68
61287;BME280;56412;53.148;8.204;2022-09-09T06:08:39;100825.22;;;19.60;62.61
61287;BME280;56412;53.148;8.204;2022-09-09T06:11:08;100822.28;;;19.63;61.90
61287;BME280;56412;53.148;8.204;2022-09-09T06:13:35;100830.31;;;19.71;61.86
61287;BME280;56412;53.148;8.204;2022-09-09T06:16:08;100834.31;;;19.76;61.81
61287;BME280;56412;53.148;8.204;2022-09-09T06:18:36;100839.56;;;19.76;61.83
61287;BME280;56412;53.148;8.204;2022-09-09T06:21:03;100839.72;;;19.74;61.54
61287;BME280;56412;53.148;8.204;2022-09-09T06:23:29;100834.47;;;19.74;61.98
61287;BME280;56412;53.148;8.204;2022-09-09T06:26:03;100831.75;;;19.56;61.73
61287;BME280;56412;53.148;8.204;2022-09-09T06:28:30;100826.00;;;19.80;62.20
61287;BME280;56412;53.148;8.204;2022-09-09T06:30:59;100821.47;;;20.00;61.87
61287;BME280;56412;53.148;8.204;2022-09-09T06:33:25;100825.84;;;20.09;61.64
61287;BME280;56412;53.148;8.204;2022-09-09T06:35:51;100820.88;;;20.06;61.81
61287;BME280;56412;53.148;8.204;2022-09-09T06:38:18;100827.00;;;19.97;62.00
61287;BME280;56412;53.148;8.204;2022-09-09T06:40:50;100829.56;;;19.89;62.00
61287;BME280;56412;53.148;8.204;2022-09-09T06:43:16;100826.63;;;19.92;62.88
61287;BME280;56412;53.148;8.204;2022-09-09T06:45:42;100828.13;;;19.94;62.77
61287;BME280;56412;53.148;8.204;2022-09-09T06:48:07;100823.00;;;19.93;62.92
61287;BME280;56412;53.148;8.204;2022-09-09T06:50:33;100820.09;;;19.96;63.15
61287;BME280;56412;53.148;8.204;2022-09-09T06:52:59;100822.59;;;19.98;63.22
61287;BME280;56412;53.148;8.204;2022-09-09T06:55:24;100812.88;;;19.98;63.05
61287;BME280;56412;53.148;8.204;2022-09-09T06:57:50;100823.09;;;20.01;63.15
61287;BME280;56412;53.148;8.204;2022-09-09T07:00:16;100821.16;;;20.03;63.05
61287;BME280;56412;53.148;8.204;2022-09-09T07:02:41;100818.66;;;20.02;63.04
61287;BME280;56412;53.148;8.204;2022-09-09T07:05:07;100819.09;;;19.97;63.02
61287;BME280;56412;53.148;8.204;2022-09-09T07:07:33;100822.31;;;19.91;62.72
61287;BME280;56412;53.148;8.204;2022-09-09T07:09:58;100823.59;;;19.87;63.10
61287;BME280;56412;53.148;8.204;2022-09-09T07:12:24;100823.22;;;20.09;64.16
61287;BME280;56412;53.148;8.204;2022-09-09T07:14:49;100827.28;;;20.22;63.68
61287;BME280;56412;53.148;8.204;2022-09-09T07:17:14;100821.50;;;20.36;63.40
61287;BME280;56412;53.148;8.204;2022-09-09T07:19:41;100830.53;;;20.51;63.64
61287;BME280;56412;53.148;8.204;2022-09-09T07:22:07;100832.72;;;20.56;62.85
61287;BME280;56412;53.148;8.204;2022-09-09T07:24:32;100833.16;;;20.51;62.48
61287;BME280;56412;53.148;8.204;2022-09-09T07:26:57;100836.78;;;20.50;62.35
61287;BME280;56412;53.148;8.204;2022-09-09T07:29:23;100834.13;;;20.50;62.58
61287;BME280;56412;53.148;8.204;2022-09-09T07:31:48;100838.19;;;20.27;62.57
61287;BME280;56412;53.148;8.204;2022-09-09T07:34:13;100843.25;;;20.10;62.79
61287;BME280;56412;53.148;8.204;2022-09-09T07:36:39;100840.13;;;20.25;62.63
61287;BME280;56412;53.148;8.204;2022-09-09T07:39:07;100837.78;;;20.22;62.34
61287;BME280;56412;53.148;8.204;2022-09-09T07:41:44;100840.34;;;20.31;62.40
61287;BME280;56412;53.148;8.204;2022-09-09T07:44:12;100836.78;;;20.50;62.14
61287;BME280;56412;53.148;8.204;2022-09-09T07:46:42;100844.44;;;20.61;61.87
61287;BME280;56412;53.148;8.204;2022-09-09T07:49:08;100837.31;;;20.72;62.18
61287;BME280;56412;53.148;8.204;2022-09-09T07:51:35;100840.38;;;20.85;61.82
61287;BME280;56412;53.148;8.204;2022-09-09T07:54:04;100849.88;;;20.78;62.12
61287;BME280;56412;53.148;8.204;2022-09-09T07:56:30;100837.81;;;21.19;61.59
61287;BME280;56412;53.148;8.204;2022-09-09T07:58:57;100855.03;;;21.31;60.71
61287;BME280;56412;53.148;8.204;2022-09-09T08:01:24;100849.22;;;21.46;60.97
61287;BME280;56412;53.148;8.204;2022-09-09T08:03:55;100847.41;;;21.46;61.40
61287;BME280;56412;53.148;8.204;2022-09-09T08:06:29;100843.97;;;21.02;60.21
61287;BME280;56412;53.148;8.204;2022-09-09T08:08:58;100850.88;;;21.29;60.16
61287;BME280;56412;53.148;8.204;2022-09-09T08:11:24;100848.47;;;21.09;59.97
61287;BME280;56412;53.148;8.204;2022-09-09T08:13:51;100839.22;;;21.31;60.66
61287;BME280;56412;53.148;8.204;2022-09-09T08:16:28;100847.94;;;21.06;60.12
61287;BME280;56412;53.148;8.204;2022-09-09T08:18:55;100847.03;;;21.15;58.71
61287;BME280;56412;53.148;8.204;2022-09-09T08:21:22;100837.06;;;21.27;59.46
61287;BME280;56412;53.148;8.204;2022-09-09T08:23:50;100839.34;;;21.48;59.25
61287;BME280;56412;53.148;8.204;2022-09-09T08:26:19;100845.16;;;21.07;57.96
61287;BME280;56412;53.148;8.204;2022-09-09T08:28:49;100840.44;;;20.93;59.12
61287;BME280;56412;53.148;8.204;2022-09-09T08:31:17;100838.91;;;21.35;58.19
61287;BME280;56412;53.148;8.204;2022-09-09T08:33:45;100844.97;;;21.27;58.26
61287;BME280;56412;53.148;8.204;2022-09-09T08:36:14;100837.88;;;21.27;58.38
61287;BME280;56412;53.148;8.204;2022-09-09T08:38:49;100842.84;;;21.57;57.80
61287;BME280;56412;53.148;8.204;2022-09-09T08:55:20;100851.25;;;22.45;54.98
61287;BME280;56412;53.148;8.204;2022-09-09T08:57:51;100850.94;;;22.73;54.47
61287;BME280;56412;53.148;8.204;2022-09-09T09:00:19;100853.41;;;22.66;54.36
61287;BME280;56412;53.148;8.204;2022-09-09T09:02:58;100849.13;;;23.14;53.62
61287;BME280;56412;53.148;8.204;2022-09-09T09:05:29;100861.34;;;23.15;52.30
61287;BME280;56412;53.148;8.204;2022-09-09T09:08:07;100865.97;;;23.05;51.69
61287;BME280;56412;53.148;8.204;2022-09-09T09:13:26;100869.56;;;22.63;52.00
61287;BME280;56412;53.148;8.204;2022-09-09T09:16:00;100869.41;;;22.81;51.08
61287;BME280;56412;53.148;8.204;2022-09-09T09:18:35;100865.97;;;22.97;51.17
61287;BME280;56412;53.148;8.204;2022-09-09T09:21:04;100868.56;;;23.29;50.93
61287;BME280;56412;53.148;8.204;2022-09-09T09:23:58;100872.28;;;23.76;50.67
61287;BME280;56412;53.148;8.204;2022-09-09T09:26:25;100865.22;;;24.08;49.26
61287;BME280;56412;53.148;8.204;2022-09-09T09:28:56;100871.00;;;24.42;48.46
61287;BME280;56412;53.148;8.204;2022-09-09T09:31:24;100867.41;;;24.58;47.44
61287;BME280;56412;53.148;8.204;2022-09-09T09:33:52;100870.50;;;24.62;47.05
61287;BME280;56412;53.148;8.204;2022-09-09T09:36:19;100862.66;;;24.54;46.59
61287;BME280;56412;53.148;8.204;2022-09-09T09:38:53;100870.25;;;24.80;47.49
61287;BME280;56412;53.148;8.204;2022-09-09T09:41:36;100864.31;;;24.92;46.88
61287;BME280;56412;53.148;8.204;2022-09-09T09:44:05;100856.56;;;25.06;46.97
61287;BME280;56412;53.148;8.204;2022-09-09T09:46:46;100861.09;;;24.82;46.73
61287;BME280;56412;53.148;8.204;2022-09-09T09:49:12;100863.78;;;25.35;46.64
61287;BME280;56412;53.148;8.204;2022-09-09T09:51:38;100871.56;;;25.36;45.68
61287;BME280;56412;53.148;8.204;2022-09-09T09:56:30;100871.47;;;25.30;44.98
61287;BME280;56412;53.148;8.204;2022-09-09T09:58:57;100868.72;;;25.53;45.23
61287;BME280;56412;53.148;8.204;2022-09-09T10:01:24;100864.81;;;25.11;44.89
61287;BME280;56412;53.148;8.204;2022-09-09T10:04:17;100869.25;;;25.19;45.30
61287;BME280;56412;53.148;8.204;2022-09-09T10:06:45;100868.63;;;25.46;45.67
61287;BME280;56412;53.148;8.204;2022-09-09T10:09:20;100863.88;;;25.71;44.45
61287;BME280;56412;53.148;8.204;2022-09-09T10:17:59;100857.28;;;26.98;42.42
61287;BME280;56412;53.148;8.204;2022-09-09T10:26:19;100846.09;;;27.37;40.99
61287;BME280;56412;53.148;8.204;2022-09-09T10:32:00;100849.34;;;27.04;40.37
61287;BME280;56412;53.148;8.204;2022-09-09T10:40:32;100854.28;;;27.77;39.76
61287;BME280;56412;53.148;8.204;2022-09-09T10:43:11;100853.72;;;28.63;36.62
61287;BME280;56412;53.148;8.204;2022-09-09T10:54:35;100859.91;;;27.54;39.71
61287;BME280;56412;53.148;8.204;2022-09-09T10:59:55;100855.81;;;27.58;39.77
61287;BME280;56412;53.148;8.204;2022-09-09T11:02:29;100849.31;;;28.15;38.65
61287;BME280;56412;53.148;8.204;2022-09-09T11:07:39;100847.09;;;29.45;36.35
61287;BME280;56412;53.148;8.204;2022-09-09T11:10:16;100844.84;;;31.14;33.61
61287;BME280;56412;53.148;8.204;2022-09-09T11:12:56;100846.16;;;31.97;32.12
61287;BME280;56412;53.148;8.204;2022-09-09T11:15:31;100855.19;;;31.47;31.36
61287;BME280;56412;53.148;8.204;2022-09-09T11:18:05;100864.19;;;31.34;32.96
61287;BME280;56412;53.148;8.204;2022-09-09T11:20:38;100851.69;;;31.10;33.90
61287;BME280;56412;53.148;8.204;2022-09-09T11:23:24;100855.28;;;31.77;33.85
61287;BME280;56412;53.148;8.204;2022-09-09T11:25:58;100850.91;;;32.67;30.88
61287;BME280;56412;53.148;8.204;2022-09-09T11:28:37;100847.78;;;32.70;29.71
61287;BME280;56412;53.148;8.204;2022-09-09T11:31:39;100861.34;;;32.03;32.91
61287;BME280;56412;53.148;8.204;2022-09-09T11:43:07;100854.19;;;32.57;31.02
61287;BME280;56412;53.148;8.204;2022-09-09T11:45:37;100860.78;;;31.27;32.59
61287;BME280;56412;53.148;8.204;2022-09-09T11:48:03;100856.00;;;30.29;33.98
61287;BME280;56412;53.148;8.204;2022-09-09T11:50:35;100852.81;;;29.55;35.13
61287;BME280;56412;53.148;8.204;2022-09-09T11:55:39;100854.22;;;28.12;37.52
61287;BME280;56412;53.148;8.204;2022-09-09T12:00:47;100849.91;;;26.35;52.47
61287;BME280;56412;53.148;8.204;2022-09-09T12:06:07;100841.44;;;23.44;79.45
61287;BME280;56412;53.148;8.204;2022-09-09T12:08:36;100848.22;;;25.47;82.39
61287;BME280;56412;53.148;8.204;2022-09-09T12:11:07;100844.88;;;26.83;76.53
61287;BME280;56412;53.148;8.204;2022-09-09T12:13:33;100844.09;;;26.25;71.37
61287;BME280;56412;53.148;8.204;2022-09-09T12:15:59;100853.09;;;25.43;68.73
61287;BME280;56412;53.148;8.204;2022-09-09T12:18:36;100853.56;;;25.09;69.12
61287;BME280;56412;53.148;8.204;2022-09-09T12:23:44;100856.09;;;25.40;67.87
61287;BME280;56412;53.148;8.204;2022-09-09T12:26:19;100852.47;;;25.03;67.07
61287;BME280;56412;53.148;8.204;2022-09-09T12:29:06;100864.81;;;24.73;65.77
61287;BME280;56412;53.148;8.204;2022-09-09T12:32:15;100864.03;;;24.41;65.52
61287;BME280;56412;53.148;8.204;2022-09-09T12:34:44;100862.59;;;24.31;65.31
61287;BME280;56412;53.148;8.204;2022-09-09T12:37:35;100865.94;;;24.24;64.78
61287;BME280;56412;53.148;8.204;2022-09-09T12:40:24;100862.56;;;24.08;63.94
61287;BME280;56412;53.148;8.204;2022-09-09T12:42:51;100862.34;;;23.86;63.37
61287;BME280;56412;53.148;8.204;2022-09-09T12:45:23;100853.25;;;23.89;63.39
61287;BME280;56412;53.148;8.204;2022-09-09T12:47:52;100848.72;;;23.97;65.05
61287;BME280;56412;53.148;8.204;2022-09-09T12:50:23;100849.69;;;24.05;64.06
61287;BME280;56412;53.148;8.204;2022-09-09T12:52:52;100846.34;;;24.11;63.93
61287;BME280;56412;53.148;8.204;2022-09-09T12:55:21;100840.34;;;24.17;63.61
61287;BME280;56412;53.148;8.204;2022-09-09T12:57:52;100839.28;;;24.26;63.69
61287;BME280;56412;53.148;8.204;2022-09-09T13:00:20;100837.41;;;24.35;63.80
61287;BME280;56412;53.148;8.204;2022-09-09T13:05:17;100830.59;;;24.40;62.00
61287;BME280;56412;53.148;8.204;2022-09-09T13:07:44;100831.31;;;24.34;62.15
61287;BME280;56412;53.148;8.204;2022-09-09T13:10:20;100828.84;;;24.33;60.99
61287;BME280;56412;53.148;8.204;2022-09-09T13:12:49;100831.19;;;24.28;60.61
61287;BME280;56412;53.148;8.204;2022-09-09T13:15:19;100830.19;;;24.29;60.67
61287;BME280;56412;53.148;8.204;2022-09-09T13:18:06;100832.47;;;24.32;60.69
61287;BME280;56412;53.148;8.204;2022-09-09T13:20:37;100834.97;;;24.33;60.45
61287;BME280;56412;53.148;8.204;2022-09-09T13:23:02;100832.59;;;24.38;60.11
61287;BME280;56412;53.148;8.204;2022-09-09T13:25:28;100835.69;;;24.50;59.41
61287;BME280;56412;53.148;8.204;2022-09-09T13:28:00;100848.03;;;24.58;59.41
61287;BME280;56412;53.148;8.204;2022-09-09T13:30:32;100849.53;;;24.60;58.81
61287;BME280;56412;53.148;8.204;2022-09-09T13:38:24;100856.84;;;24.73;57.64
61287;BME280;56412;53.148;8.204;2022-09-09T13:41:27;100853.38;;;24.73;56.46
61287;BME280;56412;53.148;8.204;2022-09-09T13:43:46;100848.06;;;24.96;56.12
61287;BME280;56412;53.148;8.204;2022-09-09T13:46:30;100852.91;;;25.30;56.15
61287;BME280;56412;53.148;8.204;2022-09-09T13:49:02;100855.56;;;25.59;55.06
61287;BME280;56412;53.148;8.204;2022-09-09T13:51:40;100857.22;;;26.12;54.02
61287;BME280;56412;53.148;8.204;2022-09-09T13:54:12;100862.03;;;26.81;51.61
61287;BME280;56412;53.148;8.204;2022-09-09T13:56:39;100856.75;;;27.37;49.19
61287;BME280;56412;53.148;8.204;2022-09-09T13:59:08;100853.56;;;28.03;48.14
61287;BME280;56412;53.148;8.204;2022-09-09T14:01:35;100853.16;;;28.06;46.30
61287;BME280;56412;53.148;8.204;2022-09-09T14:04:02;100850.75;;;27.70;46.32
61287;BME280;56412;53.148;8.204;2022-09-09T14:06:28;100856.59;;;27.17;45.50
61287;BME280;56412;53.148;8.204;2022-09-09T14:08:54;100862.66;;;26.61;44.46
61287;BME280;56412;53.148;8.204;2022-09-09T14:11:20;100848.94;;;26.36;44.15
61287;BME280;56412;53.148;8.204;2022-09-09T14:13:46;100845.19;;;26.31;44.37
61287;BME280;56412;53.148;8.204;2022-09-09T14:16:12;100847.34;;;26.42;44.56
61287;BME280;56412;53.148;8.204;2022-09-09T14:18:37;100845.84;;;26.54;44.77
61287;BME280;56412;53.148;8.204;2022-09-09T14:21:03;100838.88;;;26.53;43.46
61287;BME280;56412;53.148;8.204;2022-09-09T14:23:29;100838.16;;;26.59;43.28
61287;BME280;56412;53.148;8.204;2022-09-09T14:25:55;100834.00;;;26.78;43.20
61287;BME280;56412;53.148;8.204;2022-09-09T14:28:20;100837.88;;;26.76;42.37
61287;BME280;56412;53.148;8.204;2022-09-09T14:30:46;100835.41;;;26.74;41.94
61287;BME280;56412;53.148;8.204;2022-09-09T14:33:12;100838.25;;;26.72;42.10
61287;BME280;56412;53.148;8.204;2022-09-09T14:35:39;100836.03;;;26.76;41.95
61287;BME280;56412;53.148;8.204;2022-09-09T14:38:06;100826.97;;;26.70;41.77
61287;BME280;56412;53.148;8.204;2022-09-09T14:40:33;100836.63;;;26.71;42.17
61287;BME280;56412;53.148;8.204;2022-09-09T14:43:03;100839.44;;;26.70;42.58
61287;BME280;56412;53.148;8.204;2022-09-09T14:45:30;100838.84;;;26.68;42.01
61287;BME280;56412;53.148;8.204;2022-09-09T14:47:56;100833.28;;;26.63;41.92
61287;BME280;56412;53.148;8.204;2022-09-09T14:50:22;100827.56;;;26.66;42.73
61287;BME280;56412;53.148;8.204;2022-09-09T14:52:48;100822.94;;;26.75;42.15
61287;BME280;56412;53.148;8.204;2022-09-09T14:55:13;100815.41;;;26.78;41.88
61287;BME280;56412;53.148;8.204;2022-09-09T14:57:40;100809.22;;;26.71;41.61
61287;BME280;56412;53.148;8.204;2022-09-09T15:00:06;100814.16;;;26.53;42.10
61287;BME280;56412;53.148;8.204;2022-09-09T15:02:33;100818.25;;;26.34;41.85
61287;BME280;56412;53.148;8.204;2022-09-09T15:04:58;100817.66;;;26.17;42.18
61287;BME280;56412;53.148;8.204;2022-09-09T15:07:24;100819.81;;;26.07;42.38
61287;BME280;56412;53.148;8.204;2022-09-09T15:09:50;100821.13;;;25.96;42.38